createdAt,value
2017-11-04T00:00:40.508Z,6.10
2017-11-04T00:03:08.062Z,6.10
2017-11-04T00:05:35.546Z,6.20
2017-11-04T00:08:03.784Z,6.30
2017-11-04T00:10:31.254Z,6.30
2017-11-04T00:12:59.494Z,6.50
2017-11-04T00:15:26.948Z,6.50
2017-11-04T00:17:54.423Z,6.40
2017-11-04T00:20:21.884Z,6.20
2017-11-04T00:22:49.459Z,5.90
2017-11-04T00:25:18.427Z,5.30
2017-11-04T00:27:45.898Z,5.40
2017-11-04T00:30:13.356Z,5.20
2017-11-04T00:32:40.818Z,5.10
2017-11-04T00:35:08.373Z,5.00
2017-11-04T00:37:35.834Z,5.10
2017-11-04T00:40:03.389Z,5.20
2017-11-04T00:42:30.958Z,5.40
2017-11-04T00:44:58.415Z,5.60
2017-11-04T00:47:25.970Z,5.60
2017-11-04T00:49:53.431Z,5.70
2017-11-04T00:52:20.983Z,5.70
2017-11-04T00:54:48.452Z,5.80
2017-11-04T00:57:16.006Z,5.80
2017-11-04T00:59:43.457Z,5.80
2017-11-04T01:02:11.110Z,5.70
2017-11-04T01:04:38.571Z,5.50
2017-11-04T01:07:06.061Z,5.40
2017-11-04T01:09:34.292Z,5.50
2017-11-04T01:12:01.752Z,5.40
2017-11-04T01:14:29.215Z,5.30
2017-11-04T01:16:56.678Z,5.20
2017-11-04T01:19:24.231Z,4.90
2017-11-04T01:21:51.692Z,4.90
2017-11-04T01:24:19.251Z,5.10
2017-11-04T01:26:46.810Z,5.30
2017-11-04T01:29:14.278Z,5.40
2017-11-04T01:31:41.830Z,5.50
2017-11-04T01:34:11.030Z,5.60
2017-11-04T01:36:38.586Z,5.60
2017-11-04T01:39:06.049Z,5.70
2017-11-04T01:41:33.503Z,5.50
2017-11-04T01:44:00.986Z,5.20
2017-11-04T01:46:29.525Z,5.00
2017-11-04T01:48:57.095Z,5.00
2017-11-04T01:51:24.563Z,4.90
2017-11-04T01:53:51.535Z,5.10
2017-11-04T01:56:18.998Z,5.30
2017-11-04T01:58:46.450Z,5.40
2017-11-04T02:01:13.910Z,5.50
2017-11-04T02:03:41.375Z,5.60
2017-11-04T02:06:08.846Z,5.60
2017-11-04T02:08:36.303Z,5.60
2017-11-04T02:11:03.799Z,5.60
2017-11-04T02:13:31.268Z,5.60
2017-11-04T02:15:58.814Z,5.40
2017-11-04T02:18:26.282Z,5.40
2017-11-04T02:20:53.754Z,5.30
2017-11-04T02:23:21.977Z,5.30
2017-11-04T02:25:49.463Z,5.20
2017-11-04T02:28:16.927Z,5.20
2017-11-04T02:30:44.480Z,5.30
2017-11-04T02:33:11.939Z,5.20
2017-11-04T02:35:39.491Z,5.10
2017-11-04T02:38:06.959Z,5.10
2017-11-04T02:40:34.415Z,5.20
2017-11-04T02:43:01.879Z,5.20
2017-11-04T02:45:30.134Z,5.40
2017-11-04T02:47:57.598Z,5.40
2017-11-04T02:50:25.059Z,5.40
2017-11-04T02:52:52.534Z,5.50
2017-11-04T02:55:20.749Z,5.40
2017-11-04T02:57:48.215Z,5.40
2017-11-04T03:00:15.672Z,5.30
2017-11-04T03:02:43.242Z,5.20
2017-11-04T03:05:10.701Z,5.20
2017-11-04T03:07:38.162Z,5.00
2017-11-04T03:10:05.618Z,5.00
2017-11-04T03:12:33.079Z,5.10
2017-11-04T03:15:00.629Z,5.30
2017-11-04T03:17:28.099Z,5.40
2017-11-04T03:19:55.559Z,5.40
2017-11-04T03:22:23.022Z,5.50
2017-11-04T03:24:50.566Z,5.80
2017-11-04T03:27:18.057Z,5.80
2017-11-04T03:29:46.279Z,5.70
2017-11-04T03:32:13.857Z,5.60
2017-11-04T03:34:41.317Z,5.80
2017-11-04T03:37:08.774Z,6.00
2017-11-04T03:39:36.221Z,6.00
2017-11-04T03:42:03.685Z,5.90
2017-11-04T03:44:31.152Z,5.80
2017-11-04T03:46:58.697Z,5.80
2017-11-04T03:49:26.173Z,5.80
2017-11-04T03:51:54.398Z,5.90
2017-11-04T03:54:21.890Z,5.90
2017-11-04T03:56:49.363Z,6.00
2017-11-04T03:59:16.821Z,5.90
2017-11-04T04:01:44.281Z,5.90
2017-11-04T04:04:12.515Z,6.00
2017-11-04T04:06:39.967Z,6.00
2017-11-04T04:09:07.438Z,6.10
2017-11-04T04:11:34.915Z,6.10
2017-11-04T04:14:02.382Z,6.00
2017-11-04T04:16:29.935Z,6.00
2017-11-04T04:18:57.395Z,6.00
2017-11-04T04:21:24.934Z,6.00
2017-11-04T04:23:52.424Z,6.00
2017-11-04T04:26:20.651Z,5.90
2017-11-04T04:28:48.111Z,5.90
2017-11-04T04:31:15.582Z,6.00
2017-11-04T04:33:43.042Z,6.00
2017-11-04T04:36:10.526Z,6.00
2017-11-04T04:38:38.754Z,5.90
2017-11-04T04:41:06.220Z,5.90
2017-11-04T04:43:33.678Z,6.10
2017-11-04T04:46:01.172Z,6.10
2017-11-04T04:48:29.404Z,5.90
2017-11-04T04:50:56.883Z,5.90
2017-11-04T04:53:24.439Z,5.90
2017-11-04T04:55:51.897Z,6.00
2017-11-04T04:58:19.457Z,6.00
2017-11-04T05:00:47.006Z,6.10
2017-11-04T05:03:14.463Z,6.10
2017-11-04T05:05:41.930Z,6.10
2017-11-04T05:08:09.483Z,6.20
2017-11-04T05:10:36.955Z,6.20
2017-11-04T05:13:04.497Z,6.20
2017-11-04T05:15:31.958Z,6.20
2017-11-04T05:17:59.521Z,6.10
2017-11-04T05:20:26.993Z,6.10
2017-11-04T05:22:55.230Z,6.20
2017-11-04T05:25:22.700Z,6.20
2017-11-04T05:27:50.154Z,6.30
2017-11-04T05:30:17.623Z,6.20
2017-11-04T05:32:45.078Z,6.20
2017-11-04T05:35:12.638Z,6.10
2017-11-04T05:37:40.200Z,6.00
2017-11-04T05:40:07.666Z,6.00
2017-11-04T05:42:35.900Z,5.90
2017-11-04T05:45:03.354Z,5.80
2017-11-04T05:47:32.774Z,5.80
2017-11-04T05:50:00.243Z,5.80
2017-11-04T05:52:27.706Z,5.90
2017-11-04T05:54:56.667Z,6.00
2017-11-04T05:57:24.129Z,6.00
2017-11-04T05:59:51.584Z,6.00
2017-11-04T06:02:19.053Z,6.00
2017-11-04T06:04:46.516Z,6.10
2017-11-04T06:07:13.984Z,6.00
2017-11-04T06:09:41.446Z,5.80
2017-11-04T06:12:08.994Z,5.80
2017-11-04T06:14:36.548Z,5.80
2017-11-04T06:17:04.106Z,5.60
2017-11-04T06:19:31.568Z,5.60
2017-11-04T06:21:59.042Z,5.70
2017-11-04T06:24:26.507Z,5.70
2017-11-04T06:26:54.738Z,5.80
2017-11-04T06:29:22.194Z,5.80
2017-11-04T06:31:49.658Z,5.80
2017-11-04T06:34:17.122Z,5.80
2017-11-04T06:36:44.682Z,5.80
2017-11-04T06:39:12.155Z,5.90
2017-11-04T06:41:39.645Z,5.90
2017-11-04T06:44:07.855Z,5.80
2017-11-04T06:46:35.319Z,5.90
2017-11-04T06:49:02.774Z,5.90
2017-11-04T06:51:30.337Z,5.90
2017-11-04T06:53:57.805Z,5.90
2017-11-04T06:56:25.291Z,5.90
2017-11-04T06:58:53.511Z,6.00
2017-11-04T07:01:20.975Z,5.90
2017-11-04T07:03:48.473Z,6.00
2017-11-04T07:06:15.894Z,6.10
2017-11-04T07:08:43.357Z,6.10
2017-11-04T07:11:10.820Z,6.10
2017-11-04T07:13:38.382Z,6.20
2017-11-04T07:16:05.840Z,6.20
2017-11-04T07:18:33.307Z,6.40
2017-11-04T07:21:00.850Z,6.40
2017-11-04T07:23:28.411Z,6.40
2017-11-04T07:25:55.866Z,6.50
2017-11-04T07:28:23.326Z,6.50
2017-11-04T07:30:50.778Z,6.60
2017-11-04T07:33:18.242Z,6.60
2017-11-04T07:35:45.702Z,6.60
2017-11-04T07:38:13.178Z,6.60
2017-11-04T07:40:41.402Z,6.70
2017-11-04T07:43:08.882Z,6.70
2017-11-04T07:45:36.346Z,6.70
2017-11-04T07:48:03.831Z,6.70
2017-11-04T07:50:32.055Z,6.80
2017-11-04T07:52:59.528Z,6.80
2017-11-04T07:55:27.099Z,6.90
2017-11-04T07:57:54.563Z,7.00
2017-11-04T08:00:22.023Z,7.10
2017-11-04T08:02:50.259Z,7.30
2017-11-04T08:05:17.835Z,7.30
2017-11-04T08:07:45.300Z,7.40
2017-11-04T08:10:12.863Z,7.40
2017-11-04T08:12:40.422Z,7.50
2017-11-04T08:15:07.886Z,7.60
2017-11-04T08:17:36.150Z,7.70
2017-11-04T08:20:03.701Z,7.70
2017-11-04T08:22:31.174Z,7.80
2017-11-04T08:24:59.420Z,8.20
2017-11-04T08:27:26.886Z,8.20
2017-11-04T08:29:54.350Z,8.30
2017-11-04T08:32:23.318Z,8.30
2017-11-04T08:34:50.786Z,8.30
2017-11-04T08:37:18.242Z,8.50
2017-11-04T08:39:45.731Z,8.40
2017-11-04T08:42:13.970Z,8.60
2017-11-04T08:44:41.427Z,8.50
2017-11-04T08:47:08.914Z,8.80
2017-11-04T08:49:36.383Z,9.00
2017-11-04T08:52:04.619Z,9.50
2017-11-04T08:54:32.074Z,9.40
2017-11-04T08:56:59.539Z,9.70
2017-11-04T08:59:27.001Z,9.80
2017-11-04T09:01:55.305Z,9.80
2017-11-04T09:04:23.567Z,9.90
2017-11-04T09:06:51.018Z,9.90
2017-11-04T09:09:18.485Z,9.90
2017-11-04T09:11:45.954Z,9.90
2017-11-04T09:14:14.198Z,10.10
2017-11-04T09:16:41.684Z,10.10
2017-11-04T09:19:09.143Z,10.20
2017-11-04T09:21:37.371Z,10.80
2017-11-04T09:24:04.966Z,10.80
2017-11-04T09:26:33.194Z,11.20
2017-11-04T09:29:00.697Z,11.10
2017-11-04T09:31:28.170Z,11.10
2017-11-04T09:33:56.413Z,11.30
2017-11-04T09:36:23.885Z,11.30
2017-11-04T09:38:52.123Z,11.50
2017-11-04T09:41:19.612Z,11.50
2017-11-04T09:43:47.071Z,11.60
2017-11-04T09:46:14.556Z,11.60
2017-11-04T09:48:42.807Z,11.60
2017-11-04T09:51:10.267Z,11.60
2017-11-04T09:53:37.735Z,11.70
2017-11-04T09:56:05.957Z,11.90
2017-11-04T09:58:33.440Z,11.90
2017-11-04T10:01:00.893Z,11.90
2017-11-04T10:03:28.377Z,12.00
2017-11-04T10:05:55.835Z,12.00
2017-11-04T10:08:24.100Z,12.10
2017-11-04T10:10:51.563Z,12.10
2017-11-04T10:13:19.106Z,12.00
2017-11-04T10:15:46.570Z,12.10
2017-11-04T10:18:14.041Z,12.20
2017-11-04T10:20:42.270Z,12.50
2017-11-04T10:23:09.746Z,12.40
2017-11-04T10:25:37.315Z,12.60
2017-11-04T10:28:06.291Z,12.90
2017-11-04T10:30:33.751Z,12.80
2017-11-04T10:33:01.215Z,12.90
2017-11-04T10:35:28.685Z,12.90
2017-11-04T10:37:56.234Z,13.00
2017-11-04T10:40:23.691Z,13.00
2017-11-04T10:42:51.154Z,13.00
2017-11-04T10:45:18.615Z,13.10
2017-11-04T10:47:46.088Z,13.30
2017-11-04T10:50:14.317Z,13.20
2017-11-04T10:52:41.783Z,13.20
2017-11-04T10:55:09.251Z,13.30
2017-11-04T10:57:36.814Z,13.30
2017-11-04T11:00:04.286Z,13.30
2017-11-04T11:02:32.518Z,13.60
2017-11-04T11:05:00.002Z,13.60
2017-11-04T11:07:27.455Z,13.60
2017-11-04T11:09:54.927Z,13.80
2017-11-04T11:12:22.386Z,13.80
2017-11-04T11:14:50.648Z,14.00
2017-11-04T11:17:18.107Z,14.00
2017-11-04T11:19:45.580Z,14.30
2017-11-04T11:22:13.034Z,14.40
2017-11-04T11:24:41.278Z,14.30
2017-11-04T11:27:08.747Z,14.30
2017-11-04T11:29:36.208Z,14.40
2017-11-04T11:32:03.770Z,14.30
2017-11-04T11:34:31.231Z,14.30
2017-11-04T11:36:58.688Z,14.40
2017-11-04T11:39:26.235Z,14.50
2017-11-04T11:41:53.697Z,14.70
2017-11-04T11:44:21.242Z,14.90
2017-11-04T11:46:48.703Z,15.00
2017-11-04T11:49:16.168Z,15.10
2017-11-04T11:51:43.634Z,15.40
2017-11-04T11:54:11.281Z,15.40
2017-11-04T11:56:38.748Z,15.50
2017-11-04T11:59:06.238Z,15.60
2017-11-04T12:01:33.768Z,15.60
2017-11-04T12:04:01.222Z,15.60
2017-11-04T12:06:28.807Z,15.60
2017-11-04T12:08:56.238Z,15.70
2017-11-04T12:11:23.707Z,15.70
2017-11-04T12:13:51.935Z,15.90
2017-11-04T12:16:19.410Z,15.80
2017-11-04T12:18:46.869Z,15.80
2017-11-04T12:21:14.347Z,15.90
2017-11-04T12:23:41.803Z,16.00
2017-11-04T12:26:10.041Z,15.80
2017-11-04T12:28:37.508Z,15.80
2017-11-04T12:31:04.982Z,15.80
2017-11-04T12:33:32.448Z,15.90
2017-11-04T12:35:59.913Z,15.90
2017-11-04T12:38:28.141Z,15.70
2017-11-04T12:40:55.607Z,15.70
2017-11-04T12:43:23.066Z,15.70
2017-11-04T12:45:50.635Z,15.80
2017-11-04T12:48:18.203Z,15.80
2017-11-04T12:50:45.762Z,15.90
2017-11-04T12:53:13.219Z,15.80
2017-11-04T12:55:40.691Z,15.70
2017-11-04T12:58:08.950Z,15.60
2017-11-04T13:00:36.437Z,15.60
2017-11-04T13:03:04.691Z,15.60
2017-11-04T13:05:32.147Z,15.60
2017-11-04T13:07:59.619Z,15.70
2017-11-04T13:10:27.842Z,15.80
2017-11-04T13:12:55.321Z,15.80
2017-11-04T13:15:22.788Z,15.90
2017-11-04T13:17:50.249Z,15.80
2017-11-04T13:20:17.715Z,15.90
2017-11-04T13:22:46.685Z,16.10
2017-11-04T13:25:14.137Z,16.10
2017-11-04T13:27:41.614Z,16.20
2017-11-04T13:30:09.071Z,16.20
2017-11-04T13:32:36.538Z,16.40
2017-11-04T13:35:04.767Z,16.40
2017-11-04T13:37:32.235Z,16.40
2017-11-04T13:39:59.703Z,16.50
2017-11-04T13:42:27.170Z,16.50
2017-11-04T13:44:54.726Z,16.60
2017-11-04T13:47:22.206Z,16.60
2017-11-04T13:49:50.431Z,16.60
2017-11-04T13:52:17.891Z,16.60
2017-11-04T13:54:45.355Z,16.50
2017-11-04T13:57:12.830Z,16.50
2017-11-04T13:59:40.311Z,16.50
2017-11-04T14:02:08.530Z,16.70
2017-11-04T14:04:36.000Z,16.70
2017-11-04T14:07:03.462Z,16.70
2017-11-04T14:09:30.935Z,16.70
2017-11-04T14:11:58.402Z,16.70
2017-11-04T14:14:26.854Z,16.50
2017-11-04T14:16:54.414Z,16.60
2017-11-04T14:19:21.892Z,16.60
2017-11-04T14:21:49.359Z,16.60
2017-11-04T14:24:17.594Z,16.70
2017-11-04T14:26:45.162Z,16.70
2017-11-04T14:29:12.635Z,16.90
2017-11-04T14:31:40.100Z,17.00
2017-11-04T14:34:08.331Z,17.00
2017-11-04T14:36:35.790Z,17.00
2017-11-04T14:39:03.258Z,17.10
2017-11-04T14:41:30.721Z,17.10
2017-11-04T14:43:58.186Z,17.10
2017-11-04T14:46:25.655Z,17.00
2017-11-04T14:48:53.115Z,16.90
2017-11-04T14:51:20.579Z,16.60
2017-11-04T14:53:48.811Z,16.20
2017-11-04T14:56:16.270Z,16.20
2017-11-04T14:58:43.739Z,16.10
2017-11-04T15:01:11.207Z,16.00
2017-11-04T15:03:38.760Z,15.90
2017-11-04T15:06:06.298Z,15.90
2017-11-04T15:08:33.775Z,15.80
2017-11-04T15:11:01.235Z,15.60
2017-11-04T15:13:28.788Z,15.40
2017-11-04T15:15:56.250Z,15.40
2017-11-04T15:18:23.711Z,15.30
2017-11-04T15:20:51.368Z,15.20
2017-11-04T15:23:18.844Z,15.10
2017-11-04T15:25:47.079Z,15.00
2017-11-04T15:28:14.538Z,14.90
2017-11-04T15:30:42.002Z,14.90
2017-11-04T15:33:09.457Z,14.80
2017-11-04T15:35:36.919Z,14.80
2017-11-04T15:38:04.386Z,14.70
2017-11-04T15:40:31.850Z,14.70
2017-11-04T15:42:59.307Z,14.60
2017-11-04T15:45:26.770Z,14.60
2017-11-04T15:47:54.999Z,14.50
2017-11-04T15:50:22.458Z,14.40
2017-11-04T15:52:49.922Z,14.30
2017-11-04T15:55:17.390Z,14.10
2017-11-04T15:57:44.858Z,14.00
2017-11-04T16:00:12.414Z,13.90
2017-11-04T16:02:39.886Z,13.80
2017-11-04T16:05:07.342Z,13.80
2017-11-04T16:07:34.807Z,13.80
2017-11-04T16:10:03.042Z,13.80
2017-11-04T16:12:30.514Z,13.80
2017-11-04T16:14:57.978Z,13.90
2017-11-04T16:17:25.455Z,13.80
2017-11-04T16:19:53.683Z,13.50
2017-11-04T16:22:21.257Z,13.40
2017-11-04T16:24:48.723Z,13.20
2017-11-04T16:27:16.279Z,13.00
2017-11-04T16:29:43.739Z,12.90
2017-11-04T16:32:11.210Z,12.80
2017-11-04T16:34:39.464Z,12.60
2017-11-04T16:37:06.939Z,12.60
2017-11-04T16:39:34.403Z,12.50
2017-11-04T16:42:02.642Z,12.40
2017-11-04T16:44:30.105Z,12.40
2017-11-04T16:46:57.672Z,12.30
2017-11-04T16:49:25.141Z,12.20
2017-11-04T16:51:52.597Z,12.10
2017-11-04T16:54:20.067Z,12.10
2017-11-04T16:56:48.298Z,12.10
2017-11-04T16:59:15.756Z,12.10
2017-11-04T17:01:43.222Z,12.10
2017-11-04T17:04:10.748Z,12.10
2017-11-04T17:06:38.255Z,12.00
2017-11-04T17:09:05.817Z,12.10
2017-11-04T17:11:33.279Z,12.10
2017-11-04T17:14:00.739Z,12.10
2017-11-04T17:16:28.278Z,12.20
2017-11-04T17:18:55.742Z,12.50
2017-11-04T17:21:23.253Z,12.70
2017-11-04T17:23:50.703Z,12.60
2017-11-04T17:26:18.165Z,12.60
2017-11-04T17:28:45.638Z,12.50
2017-11-04T17:31:13.126Z,12.50
2017-11-04T17:33:40.737Z,12.60
2017-11-04T17:36:08.238Z,12.50
2017-11-04T17:38:35.703Z,12.50
2017-11-04T17:41:03.165Z,12.30
2017-11-04T17:43:30.704Z,12.30
2017-11-04T17:45:58.282Z,12.40
2017-11-04T17:48:26.555Z,12.30
2017-11-04T17:50:54.108Z,12.30
2017-11-04T17:53:21.722Z,12.30
2017-11-04T17:55:49.184Z,12.40
2017-11-04T17:58:16.679Z,12.50
2017-11-04T18:00:44.154Z,12.40
2017-11-04T18:03:11.700Z,12.40
2017-11-04T18:05:39.170Z,12.40
2017-11-04T18:08:06.635Z,12.40
2017-11-04T18:10:34.923Z,12.30
2017-11-04T18:13:03.154Z,12.20
2017-11-04T18:15:30.626Z,12.20
2017-11-04T18:17:58.078Z,12.10
2017-11-04T18:20:25.635Z,12.10
2017-11-04T18:22:53.099Z,12.00
2017-11-04T18:25:20.562Z,12.00
2017-11-04T18:27:48.023Z,12.00
2017-11-04T18:30:16.262Z,11.90
2017-11-04T18:32:43.719Z,11.90
2017-11-04T18:35:11.197Z,12.10
2017-11-04T18:37:40.166Z,12.00
2017-11-04T18:40:07.650Z,12.00
2017-11-04T18:42:35.115Z,11.90
2017-11-04T18:45:02.575Z,11.70
2017-11-04T18:47:30.815Z,11.50
2017-11-04T18:49:58.317Z,11.50
2017-11-04T18:52:25.897Z,11.40
2017-11-04T18:54:54.115Z,11.30
2017-11-04T18:57:21.786Z,11.20
2017-11-04T18:59:49.246Z,11.20
2017-11-04T19:02:16.808Z,11.20
2017-11-04T19:04:44.368Z,11.20
2017-11-04T19:07:11.895Z,11.20
2017-11-04T19:09:40.409Z,11.10
2017-11-04T19:12:07.928Z,11.10
2017-11-04T19:14:35.463Z,11.00
2017-11-04T19:17:03.694Z,11.10
2017-11-04T19:19:31.162Z,11.10
2017-11-04T19:21:58.648Z,11.10
2017-11-04T19:24:26.120Z,11.00
2017-11-04T19:26:53.581Z,10.90
2017-11-04T19:29:21.054Z,10.80
2017-11-04T19:31:48.514Z,10.80
2017-11-04T19:34:15.987Z,10.80
2017-11-04T19:36:43.499Z,10.80
2017-11-04T19:39:11.774Z,10.80
2017-11-04T19:41:39.245Z,10.80
2017-11-04T19:44:06.701Z,11.00
2017-11-04T19:46:34.213Z,11.00
2017-11-04T19:49:01.729Z,11.20
2017-11-04T19:51:29.245Z,11.30
2017-11-04T19:53:57.474Z,11.50
2017-11-04T19:56:24.929Z,11.50
2017-11-04T19:58:52.450Z,11.40
2017-11-04T20:01:20.718Z,11.30
2017-11-04T20:03:48.938Z,11.30
2017-11-04T20:06:16.406Z,11.30
2017-11-04T20:08:43.982Z,11.20
2017-11-04T20:11:11.438Z,11.20
2017-11-04T20:13:38.967Z,11.20
2017-11-04T20:16:06.430Z,11.20
2017-11-04T20:18:33.910Z,11.10
2017-11-04T20:21:01.431Z,11.00
2017-11-04T20:23:28.971Z,10.90
2017-11-04T20:25:56.439Z,10.80
2017-11-04T20:28:23.982Z,10.70
2017-11-04T20:30:51.497Z,10.60
2017-11-04T20:33:18.956Z,10.50
2017-11-04T20:35:46.434Z,10.20
2017-11-04T20:38:14.666Z,10.00
2017-11-04T20:40:42.246Z,10.00
2017-11-04T20:43:09.759Z,9.90
2017-11-04T20:45:37.218Z,9.80
2017-11-04T20:48:04.683Z,9.90
2017-11-04T20:50:32.210Z,9.90
2017-11-04T20:53:00.477Z,10.10
2017-11-04T20:55:28.710Z,10.10
2017-11-04T20:57:56.182Z,10.10
2017-11-04T21:00:23.662Z,10.00
2017-11-04T21:02:51.896Z,9.60
2017-11-04T21:05:19.408Z,9.60
2017-11-04T21:07:46.984Z,9.50
2017-11-04T21:10:14.503Z,9.50
2017-11-04T21:12:42.811Z,9.20
2017-11-04T21:15:10.321Z,9.20
2017-11-04T21:17:37.773Z,9.10
2017-11-04T21:20:05.386Z,9.20
2017-11-04T21:22:32.943Z,9.30
2017-11-04T21:25:00.408Z,9.50
2017-11-04T21:27:27.863Z,9.50
2017-11-04T21:29:55.357Z,9.50
2017-11-04T21:32:22.829Z,9.60
2017-11-04T21:34:50.286Z,9.60
2017-11-04T21:37:17.886Z,9.70
2017-11-04T21:39:45.390Z,9.70
2017-11-04T21:42:12.898Z,9.80
2017-11-04T21:44:41.107Z,9.60
2017-11-04T21:47:08.566Z,9.60
2017-11-04T21:49:36.077Z,9.40
2017-11-04T21:52:04.354Z,9.00
2017-11-04T21:54:32.575Z,8.90
2017-11-04T21:57:00.047Z,8.90
2017-11-04T22:02:36.854Z,8.80
2017-11-04T22:05:04.361Z,8.80
2017-11-04T22:07:31.906Z,8.70
2017-11-04T22:10:00.122Z,8.70
2017-11-04T22:12:27.583Z,8.70
2017-11-04T22:14:55.106Z,8.80
2017-11-04T22:17:22.657Z,8.90
2017-11-04T22:19:50.161Z,9.00
2017-11-04T22:22:17.682Z,9.10
2017-11-04T22:24:45.145Z,9.10
2017-11-04T22:27:12.652Z,9.30
2017-11-04T22:29:40.158Z,9.30
2017-11-04T22:32:07.654Z,9.40
2017-11-04T22:34:35.122Z,9.50
2017-11-04T22:37:02.650Z,9.50
2017-11-04T22:39:30.173Z,9.60
2017-11-04T22:41:57.693Z,9.50
2017-11-04T22:44:25.197Z,9.30
2017-11-04T22:46:53.424Z,9.00
2017-11-04T22:49:20.983Z,9.00
2017-11-04T22:51:48.451Z,8.80
2017-11-04T22:54:15.908Z,8.80
2017-11-04T22:56:43.376Z,8.80
2017-11-04T22:59:11.644Z,8.80
2017-11-04T23:01:39.152Z,8.80
2017-11-04T23:04:06.605Z,8.90
2017-11-04T23:06:34.070Z,9.00
2017-11-04T23:09:01.578Z,9.00
2017-11-04T23:11:29.827Z,9.30
2017-11-04T23:13:57.291Z,9.30
2017-11-04T23:16:24.748Z,9.30
2017-11-04T23:18:52.298Z,9.40
2017-11-04T23:21:19.755Z,9.40
2017-11-04T23:23:47.221Z,9.40
2017-11-04T23:26:14.673Z,9.40
2017-11-04T23:28:42.140Z,9.30
2017-11-04T23:31:09.603Z,9.00
2017-11-04T23:33:37.066Z,9.00
2017-11-04T23:36:05.327Z,9.00
2017-11-04T23:38:32.792Z,9.00
2017-11-04T23:41:01.065Z,9.00
2017-11-04T23:43:28.530Z,9.00
2017-11-04T23:45:56.762Z,9.10
2017-11-04T23:48:24.234Z,9.10
2017-11-04T23:50:51.701Z,9.20
2017-11-04T23:53:19.176Z,9.00
2017-11-04T23:55:46.626Z,8.90
2017-11-04T23:58:15.921Z,8.80
